createdAt,value
2023-01-23T00:01:47.835Z,-2.10
2023-01-23T00:04:15.632Z,-2.15
2023-01-23T00:06:44.638Z,-2.12
2023-01-23T00:09:12.132Z,-2.12
2023-01-23T00:11:39.729Z,-2.15
2023-01-23T00:14:07.273Z,-2.17
2023-01-23T00:16:34.908Z,-2.14
2023-01-23T00:19:02.936Z,-2.15
2023-01-23T00:21:31.338Z,-2.25
2023-01-23T00:24:01.817Z,-2.33
2023-01-23T00:26:32.612Z,-2.16
2023-01-23T00:29:00.320Z,-2.17
2023-01-23T00:31:30.349Z,-2.01
2023-01-23T00:34:00.094Z,-2.00
2023-01-23T00:36:30.820Z,-2.07
2023-01-23T00:39:01.265Z,-2.06
2023-01-23T00:41:30.764Z,-2.09
2023-01-23T00:43:58.287Z,-2.18
2023-01-23T00:46:26.279Z,-2.08
2023-01-23T00:48:53.866Z,-2.10
2023-01-23T00:51:21.592Z,-2.11
2023-01-23T00:53:49.844Z,-2.27
2023-01-23T00:56:18.813Z,-2.43
2023-01-23T00:58:46.743Z,-2.37
2023-01-23T01:01:15.088Z,-2.35
2023-01-23T01:03:47.420Z,-2.55
2023-01-23T01:06:19.409Z,-2.31
2023-01-23T01:08:47.539Z,-2.33
2023-01-23T01:11:15.541Z,-2.35
2023-01-23T01:13:44.787Z,-2.09
2023-01-23T01:16:12.737Z,-2.11
2023-01-23T01:18:40.769Z,-2.13
2023-01-23T01:21:09.276Z,-2.07
2023-01-23T01:23:36.994Z,-2.12
2023-01-23T01:26:05.474Z,-2.11
2023-01-23T01:28:34.395Z,-2.06
2023-01-23T01:31:08.420Z,-2.02
2023-01-23T01:33:36.329Z,-2.25
2023-01-23T01:36:03.867Z,-2.14
2023-01-23T01:38:31.337Z,-2.16
2023-01-23T01:40:58.806Z,-2.12
2023-01-23T01:43:28.360Z,-2.06
2023-01-23T01:46:23.099Z,-2.06
2023-01-23T01:49:03.174Z,-2.02
2023-01-23T01:51:33.283Z,-2.01
2023-01-23T01:54:07.535Z,-2.00
2023-01-23T01:56:45.491Z,-2.08
2023-01-23T01:59:14.025Z,-1.99
2023-01-23T02:01:48.785Z,-2.06
2023-01-23T02:04:17.497Z,-2.07
2023-01-23T02:06:51.133Z,-2.05
2023-01-23T02:09:26.225Z,-2.38
2023-01-23T02:11:54.171Z,-2.21
2023-01-23T02:14:24.292Z,-2.07
2023-01-23T02:16:55.978Z,-2.09
2023-01-23T02:19:38.626Z,-2.11
2023-01-23T02:22:16.285Z,-2.27
2023-01-23T02:24:51.092Z,-2.01
2023-01-23T02:27:19.967Z,-2.06
2023-01-23T02:29:48.263Z,-2.07
2023-01-23T02:32:16.406Z,-2.06
2023-01-23T02:34:45.361Z,-2.48
2023-01-23T02:37:14.397Z,-2.51
2023-01-23T02:39:42.060Z,-2.14
2023-01-23T02:42:11.725Z,-2.13
2023-01-23T02:44:40.890Z,-2.29
2023-01-23T02:47:12.223Z,-2.13
2023-01-23T02:49:40.307Z,-2.05
2023-01-23T02:52:09.571Z,-2.10
2023-01-23T02:54:37.158Z,-2.09
2023-01-23T02:57:04.757Z,-2.21
2023-01-23T02:59:49.722Z,-2.17
2023-01-23T03:02:21.059Z,-2.12
2023-01-23T03:04:48.583Z,-2.09
2023-01-23T03:07:16.454Z,-2.09
2023-01-23T03:09:46.190Z,-2.10
2023-01-23T03:12:14.616Z,-2.04
2023-01-23T03:14:42.666Z,-2.08
2023-01-23T03:17:10.958Z,-2.13
2023-01-23T03:19:39.964Z,-2.04
2023-01-23T03:22:07.542Z,-2.13
2023-01-23T03:24:35.780Z,-2.18
2023-01-23T03:27:03.438Z,-2.09
2023-01-23T03:29:48.593Z,-2.05
2023-01-23T03:32:17.344Z,-2.05
2023-01-23T03:34:47.440Z,-2.07
2023-01-23T03:37:17.283Z,-2.26
2023-01-23T03:40:02.569Z,-2.10
2023-01-23T03:42:30.042Z,-2.07
2023-01-23T03:44:57.520Z,-2.03
2023-01-23T03:47:26.253Z,-2.13
2023-01-23T03:49:55.076Z,-2.07
2023-01-23T03:52:22.594Z,-2.05
2023-01-23T03:54:50.134Z,-2.07
2023-01-23T03:57:17.909Z,-2.06
2023-01-23T03:59:48.419Z,-1.99
2023-01-23T04:02:20.193Z,-2.46
2023-01-23T04:04:47.924Z,-2.00
2023-01-23T04:07:16.781Z,-1.99
2023-01-23T04:09:44.427Z,-2.03
2023-01-23T04:12:12.091Z,-2.29
2023-01-23T04:14:39.840Z,-1.99
2023-01-23T04:17:09.449Z,-1.99
2023-01-23T04:19:36.922Z,-2.00
2023-01-23T04:22:04.905Z,-1.91
2023-01-23T04:24:34.232Z,-2.01
2023-01-23T04:27:01.832Z,-2.12
2023-01-23T04:29:29.545Z,-2.19
2023-01-23T04:31:57.149Z,-1.97
2023-01-23T04:34:24.608Z,-1.94
2023-01-23T04:36:52.111Z,-1.98
2023-01-23T04:39:19.686Z,-1.98
2023-01-23T04:41:48.648Z,-1.95
2023-01-23T04:44:22.067Z,-2.14
2023-01-23T04:46:50.787Z,-2.13
2023-01-23T04:49:19.433Z,-2.05
2023-01-23T04:51:48.041Z,-2.06
2023-01-23T04:54:15.606Z,-2.07
2023-01-23T04:56:43.379Z,-2.05
2023-01-23T04:59:12.920Z,-2.04
2023-01-23T05:01:40.523Z,-2.07
2023-01-23T05:04:08.058Z,-2.09
2023-01-23T05:06:35.629Z,-2.10
2023-01-23T05:09:03.170Z,-2.18
2023-01-23T05:11:31.228Z,-2.19
2023-01-23T05:13:58.790Z,-2.19
2023-01-23T05:16:27.689Z,-2.14
2023-01-23T05:18:55.305Z,-2.10
2023-01-23T05:21:22.926Z,-2.10
2023-01-23T05:23:50.431Z,-2.06
2023-01-23T05:26:18.105Z,-2.12
2023-01-23T05:28:45.721Z,-2.08
2023-01-23T05:31:13.389Z,-2.08
2023-01-23T05:33:42.447Z,-2.14
2023-01-23T05:36:10.066Z,-2.16
2023-01-23T05:38:37.593Z,-2.02
2023-01-23T05:41:05.421Z,-2.08
2023-01-23T05:43:32.903Z,-2.05
2023-01-23T05:46:00.580Z,-2.13
2023-01-23T05:48:28.141Z,-2.06
2023-01-23T05:50:57.076Z,-2.04
2023-01-23T05:53:24.990Z,-2.08
2023-01-23T05:55:52.483Z,-2.19
2023-01-23T05:58:20.005Z,-2.08
2023-01-23T06:00:47.503Z,-2.03
2023-01-23T06:03:15.008Z,-2.06
2023-01-23T06:05:42.541Z,-2.08
2023-01-23T06:08:11.838Z,-2.35
2023-01-23T06:10:39.386Z,-2.12
2023-01-23T06:13:06.892Z,-2.11
2023-01-23T06:15:34.421Z,-2.09
2023-01-23T06:18:01.892Z,-2.12
2023-01-23T06:20:29.332Z,-2.14
2023-01-23T06:22:56.820Z,-2.07
2023-01-23T06:25:25.714Z,-2.09
2023-01-23T06:27:54.941Z,-2.05
2023-01-23T06:30:22.927Z,-2.10
2023-01-23T06:32:50.468Z,-2.15
2023-01-23T06:35:18.429Z,-2.07
2023-01-23T06:37:46.384Z,-2.11
2023-01-23T06:40:14.663Z,-2.18
2023-01-23T06:42:44.178Z,-2.18
2023-01-23T06:45:12.592Z,-2.20
2023-01-23T06:47:40.072Z,-2.34
2023-01-23T06:50:08.537Z,-2.25
2023-01-23T06:52:35.996Z,-2.10
2023-01-23T06:55:03.497Z,-2.07
2023-01-23T06:57:31.125Z,-2.23
2023-01-23T07:00:00.133Z,-2.08
2023-01-23T07:02:27.733Z,-2.07
2023-01-23T07:04:55.208Z,-2.07
2023-01-23T07:07:22.639Z,-2.12
2023-01-23T07:09:50.100Z,-2.05
2023-01-23T07:12:17.565Z,-2.15
2023-01-23T07:14:45.098Z,-2.08
2023-01-23T07:17:13.945Z,-2.17
2023-01-23T07:19:41.397Z,-2.16
2023-01-23T07:22:08.845Z,-2.17
2023-01-23T07:24:36.279Z,-2.15
2023-01-23T07:27:03.785Z,-2.06
2023-01-23T07:29:31.284Z,-2.02
2023-01-23T07:32:00.769Z,-2.11
2023-01-23T07:34:29.886Z,-2.05
2023-01-23T07:36:57.620Z,-2.05
2023-01-23T07:39:25.676Z,-2.11
2023-01-23T07:41:53.155Z,-2.04
2023-01-23T07:44:22.817Z,-2.05
2023-01-23T07:46:50.882Z,-2.02
2023-01-23T07:49:18.570Z,-1.99
2023-01-23T07:51:47.366Z,-1.96
2023-01-23T07:54:14.864Z,-1.98
2023-01-23T07:56:42.376Z,-2.02
2023-01-23T07:59:09.979Z,-1.98
2023-01-23T08:01:38.056Z,-2.03
2023-01-23T08:04:05.595Z,-2.04
2023-01-23T08:06:34.020Z,-1.99
2023-01-23T08:09:02.836Z,-2.06
2023-01-23T08:11:31.083Z,-2.00
2023-01-23T08:13:59.781Z,-2.04
2023-01-23T08:16:27.713Z,-2.11
2023-01-23T08:18:55.406Z,-2.06
2023-01-23T08:21:23.347Z,-2.00
2023-01-23T08:23:50.899Z,-1.91
2023-01-23T08:26:19.679Z,-2.06
2023-01-23T08:28:47.178Z,-1.98
2023-01-23T08:31:15.342Z,-1.98
2023-01-23T08:33:42.864Z,-1.90
2023-01-23T08:36:12.571Z,-1.86
2023-01-23T08:38:40.564Z,-1.91
2023-01-23T08:41:09.806Z,-1.82
2023-01-23T08:43:41.180Z,-1.81
2023-01-23T08:46:10.155Z,-1.79
2023-01-23T08:48:37.740Z,-1.76
2023-01-23T08:51:16.275Z,-1.71
2023-01-23T08:53:43.798Z,-1.71
2023-01-23T08:56:16.859Z,-1.69
2023-01-23T08:58:46.717Z,-1.67
2023-01-23T09:01:15.621Z,-1.72
2023-01-23T09:03:43.519Z,-1.84
2023-01-23T09:06:11.973Z,-1.74
2023-01-23T09:08:39.429Z,-1.69
2023-01-23T09:11:09.117Z,-1.59
2023-01-23T09:13:36.876Z,-1.81
2023-01-23T09:16:08.126Z,-1.92
2023-01-23T09:18:36.099Z,-1.87
2023-01-23T09:21:08.904Z,-1.77
2023-01-23T09:23:36.516Z,-1.55
2023-01-23T09:26:04.875Z,-1.43
2023-01-23T09:28:32.309Z,-1.46
2023-01-23T09:31:03.772Z,-1.62
2023-01-23T09:33:32.648Z,-1.64
2023-01-23T09:36:00.109Z,-1.46
2023-01-23T09:38:27.860Z,-1.61
2023-01-23T09:40:57.173Z,-1.69
2023-01-23T09:43:29.332Z,-1.55
2023-01-23T09:46:03.822Z,-1.37
2023-01-23T09:48:44.534Z,-1.49
2023-01-23T09:51:19.205Z,-1.42
2023-01-23T09:53:47.026Z,-1.35
2023-01-23T09:56:29.171Z,-1.30
2023-01-23T09:59:09.341Z,-1.36
2023-01-23T10:01:38.460Z,-1.57
2023-01-23T10:04:07.952Z,-1.53
2023-01-23T10:06:56.605Z,-1.63
2023-01-23T10:09:37.980Z,-1.66
2023-01-23T10:12:14.471Z,-1.51
2023-01-23T10:15:02.196Z,-1.49
2023-01-23T10:17:40.060Z,-1.29
2023-01-23T10:20:39.531Z,-1.38
2023-01-23T10:23:20.091Z,-1.25
2023-01-23T10:25:49.256Z,-1.26
2023-01-23T10:28:30.652Z,-1.43
2023-01-23T10:31:01.570Z,-1.04
2023-01-23T10:33:38.423Z,-1.31
2023-01-23T10:36:23.668Z,-1.16
2023-01-23T10:39:00.358Z,-0.90
2023-01-23T10:41:27.985Z,-0.77
2023-01-23T10:43:56.931Z,-0.94
2023-01-23T10:46:31.428Z,-1.08
2023-01-23T10:49:00.937Z,-1.08
2023-01-23T10:51:36.172Z,-0.83
2023-01-23T10:54:06.628Z,-0.67
2023-01-23T10:56:37.231Z,-0.69
2023-01-23T10:59:06.899Z,-0.78
2023-01-23T11:01:38.796Z,-0.83
2023-01-23T11:04:12.197Z,-0.54
2023-01-23T11:06:41.141Z,-0.71
2023-01-23T11:09:21.047Z,-0.90
2023-01-23T11:12:00.904Z,-0.94
2023-01-23T11:14:28.777Z,-0.48
2023-01-23T11:17:02.125Z,-0.93
2023-01-23T11:19:32.247Z,-0.83
2023-01-23T11:22:02.246Z,-0.90
2023-01-23T11:24:40.400Z,-0.88
2023-01-23T11:27:19.324Z,-0.94
2023-01-23T11:30:02.039Z,-1.04
2023-01-23T11:32:31.525Z,-0.88
2023-01-23T11:35:12.591Z,-1.03
2023-01-23T11:37:42.988Z,-0.99
2023-01-23T11:40:14.947Z,-1.07
2023-01-23T11:42:43.905Z,-0.77
2023-01-23T11:45:16.453Z,-0.86
2023-01-23T11:48:10.600Z,-1.04
2023-01-23T11:50:54.532Z,-0.91
2023-01-23T11:53:42.339Z,-0.64
2023-01-23T11:56:33.597Z,-0.51
2023-01-23T11:59:27.211Z,-0.81
2023-01-23T12:02:13.977Z,-0.68
2023-01-23T12:05:08.891Z,-1.03
2023-01-23T12:07:45.296Z,-0.93
2023-01-23T12:10:25.139Z,-0.91
2023-01-23T12:13:10.794Z,-1.01
2023-01-23T12:15:45.379Z,-0.95
2023-01-23T12:18:25.946Z,-1.32
2023-01-23T12:21:02.564Z,-1.00
2023-01-23T12:23:45.284Z,-1.02
2023-01-23T12:26:19.350Z,-1.10
2023-01-23T12:29:24.260Z,-0.79
2023-01-23T12:32:08.867Z,-0.99
2023-01-23T12:34:49.769Z,-1.21
2023-01-23T12:37:31.131Z,-1.11
2023-01-23T12:40:11.198Z,-1.06
2023-01-23T12:42:48.117Z,-1.11
2023-01-23T12:45:22.172Z,-1.21
2023-01-23T12:47:57.063Z,-0.92
2023-01-23T12:50:35.874Z,-1.08
2023-01-23T12:53:08.430Z,-1.22
2023-01-23T12:55:39.229Z,-1.35
2023-01-23T12:58:13.512Z,-1.28
2023-01-23T13:00:53.563Z,-1.06
2023-01-23T13:03:46.129Z,-1.19
2023-01-23T13:06:29.827Z,-1.19
2023-01-23T13:09:16.771Z,-1.11
2023-01-23T13:11:54.386Z,-1.01
2023-01-23T13:14:29.168Z,-1.20
2023-01-23T13:17:02.628Z,-1.31
2023-01-23T13:19:49.085Z,-1.40
2023-01-23T13:22:31.416Z,-1.28
2023-01-23T13:25:19.998Z,-1.20
2023-01-23T13:27:51.146Z,-1.18
2023-01-23T13:30:45.301Z,-1.14
2023-01-23T13:33:55.219Z,-1.20
2023-01-23T13:36:37.430Z,-1.34
2023-01-23T13:39:29.066Z,-1.18
2023-01-23T13:42:45.713Z,-1.07
2023-01-23T13:45:30.714Z,-1.23
2023-01-23T14:23:35.179Z,-1.32
2023-01-23T14:26:03.480Z,-1.14
2023-01-23T14:28:31.477Z,-1.04
2023-01-23T14:31:02.075Z,-1.35
2023-01-23T14:33:30.031Z,-1.41
2023-01-23T14:35:57.989Z,-1.32
2023-01-23T14:38:32.949Z,-1.15
2023-01-23T14:41:04.998Z,-1.22
2023-01-23T14:43:33.902Z,-1.22
2023-01-23T14:46:05.042Z,-1.27
2023-01-23T14:48:36.834Z,-1.25
2023-01-23T14:51:08.463Z,-1.20
2023-01-23T14:53:40.548Z,-1.25
2023-01-23T14:56:09.893Z,-1.34
2023-01-23T14:58:38.541Z,-1.34
2023-01-23T15:01:06.386Z,-1.37
2023-01-23T15:03:39.167Z,-1.34
2023-01-23T15:06:11.591Z,-1.35
2023-01-23T15:08:41.242Z,-1.38
2023-01-23T15:11:13.000Z,-1.35
2023-01-23T15:13:47.392Z,-1.61
2023-01-23T15:16:19.542Z,-1.46
2023-01-23T15:18:55.467Z,-1.41
2023-01-23T15:21:28.587Z,-1.50
2023-01-23T15:24:06.925Z,-1.86
2023-01-23T15:26:36.887Z,-1.61
2023-01-23T15:29:18.270Z,-1.77
2023-01-23T15:31:47.897Z,-1.53
2023-01-23T15:34:25.155Z,-1.60
2023-01-23T15:36:57.392Z,-1.59
2023-01-23T15:39:28.727Z,-1.61
2023-01-23T15:41:59.685Z,-1.59
2023-01-23T15:44:29.636Z,-1.59
2023-01-23T15:47:00.797Z,-1.58
2023-01-23T15:49:28.640Z,-1.60
2023-01-23T15:51:57.533Z,-1.66
2023-01-23T15:54:32.376Z,-1.61
2023-01-23T15:57:07.557Z,-1.70
2023-01-23T15:59:37.290Z,-1.74
2023-01-23T16:02:05.109Z,-1.67
2023-01-23T16:04:32.821Z,-1.69
2023-01-23T16:07:05.738Z,-1.66
2023-01-23T16:09:37.808Z,-1.65
2023-01-23T16:12:06.170Z,-1.67
2023-01-23T16:14:33.634Z,-1.80
2023-01-23T16:17:15.263Z,-1.75
2023-01-23T16:19:43.660Z,-1.69
2023-01-23T16:22:16.939Z,-1.70
2023-01-23T16:24:45.755Z,-1.71
2023-01-23T16:27:27.035Z,-1.71
2023-01-23T16:29:55.022Z,-1.74
2023-01-23T16:32:22.827Z,-1.70
2023-01-23T16:34:50.515Z,-1.73
2023-01-23T16:37:19.869Z,-1.94
2023-01-23T16:39:48.766Z,-1.72
2023-01-23T16:42:23.402Z,-1.76
2023-01-23T16:44:51.410Z,-1.69
2023-01-23T16:47:18.926Z,-1.69
2023-01-23T16:49:52.550Z,-1.86
2023-01-23T16:52:24.154Z,-1.67
2023-01-23T16:54:55.415Z,-1.66
2023-01-23T16:57:23.608Z,-1.71
2023-01-23T16:59:52.163Z,-1.73
2023-01-23T17:02:23.092Z,-1.68
2023-01-23T17:04:50.845Z,-1.64
2023-01-23T17:07:19.843Z,-1.65
2023-01-23T17:09:49.055Z,-1.63
2023-01-23T17:12:21.482Z,-1.69
2023-01-23T17:14:52.335Z,-1.65
2023-01-23T17:17:26.358Z,-1.66
2023-01-23T17:19:54.998Z,-1.68
2023-01-23T17:22:25.265Z,-1.70
2023-01-23T17:24:52.693Z,-1.70
2023-01-23T17:27:21.484Z,-1.68
2023-01-23T17:29:49.398Z,-1.77
2023-01-23T17:32:27.573Z,-1.64
2023-01-23T17:34:55.232Z,-1.75
2023-01-23T17:37:23.910Z,-1.63
2023-01-23T17:39:51.674Z,-1.63
2023-01-23T17:42:19.201Z,-1.61
2023-01-23T17:44:47.993Z,-1.60
2023-01-23T17:47:16.340Z,-1.61
2023-01-23T17:49:47.237Z,-1.69
2023-01-23T17:52:14.741Z,-1.68
2023-01-23T17:54:42.186Z,-1.69
2023-01-23T17:57:09.671Z,-1.67
2023-01-23T17:59:37.089Z,-1.65
2023-01-23T18:02:21.302Z,-1.63
2023-01-23T18:04:48.762Z,-1.65
2023-01-23T18:07:17.137Z,-1.76
2023-01-23T18:09:44.606Z,-1.59
2023-01-23T18:12:17.903Z,-1.67
2023-01-23T18:14:50.028Z,-1.58
2023-01-23T18:17:29.913Z,-1.63
2023-01-23T18:19:57.896Z,-1.61
2023-01-23T18:22:25.849Z,-1.62
2023-01-23T18:24:54.009Z,-1.73
2023-01-23T18:27:24.391Z,-1.71
2023-01-23T18:30:10.998Z,-1.86
2023-01-23T18:33:05.426Z,-1.68
2023-01-23T18:35:46.042Z,-1.65
2023-01-23T18:38:19.420Z,-1.97
2023-01-23T18:40:57.029Z,-1.60
2023-01-23T18:43:35.439Z,-1.62
2023-01-23T18:46:03.327Z,-1.67
2023-01-23T18:48:34.946Z,-1.66
2023-01-23T18:51:15.105Z,-1.62
2023-01-23T18:53:52.395Z,-1.66
2023-01-23T18:56:26.102Z,-1.64
2023-01-23T18:59:11.491Z,-1.66
2023-01-23T19:01:50.048Z,-1.65
2023-01-23T19:04:21.297Z,-1.67
2023-01-23T19:06:49.293Z,-1.68
2023-01-23T19:09:20.874Z,-1.60
2023-01-23T19:12:07.608Z,-1.64
2023-01-23T19:14:47.784Z,-1.60
2023-01-23T19:17:24.507Z,-1.66
2023-01-23T19:20:01.610Z,-1.67
2023-01-23T19:22:40.517Z,-1.67
2023-01-23T19:25:16.628Z,-1.72
2023-01-23T19:27:44.356Z,-1.68
2023-01-23T19:30:13.174Z,-1.73
2023-01-23T19:32:44.087Z,-1.71
2023-01-23T19:35:27.096Z,-1.72
2023-01-23T19:37:54.953Z,-1.69
2023-01-23T19:40:22.437Z,-1.70
2023-01-23T19:42:58.812Z,-1.66
2023-01-23T19:45:36.582Z,-1.81
2023-01-23T19:48:04.515Z,-1.75
2023-01-23T19:50:33.387Z,-2.00
2023-01-23T19:53:01.047Z,-1.90
2023-01-23T19:55:30.754Z,-1.76
2023-01-23T19:57:58.973Z,-1.75
2023-01-23T20:00:27.816Z,-1.71
2023-01-23T20:02:57.950Z,-1.75
2023-01-23T20:05:26.204Z,-1.67
2023-01-23T20:07:55.521Z,-1.70
2023-01-23T20:10:23.669Z,-1.85
2023-01-23T20:12:56.580Z,-1.73
2023-01-23T20:15:26.862Z,-1.74
2023-01-23T20:17:57.473Z,-1.90
2023-01-23T20:20:25.271Z,-2.16
2023-01-23T20:22:54.776Z,-1.90
2023-01-23T20:25:26.391Z,-1.92
2023-01-23T20:27:53.965Z,-1.85
2023-01-23T20:30:22.035Z,-1.73
2023-01-23T20:32:49.971Z,-2.00
2023-01-23T20:35:17.807Z,-1.74
2023-01-23T20:37:45.388Z,-1.80
2023-01-23T20:40:13.083Z,-1.70
2023-01-23T20:42:42.174Z,-1.72
2023-01-23T20:45:10.432Z,-1.79
2023-01-23T20:47:38.608Z,-1.96
2023-01-23T20:50:06.989Z,-1.78
2023-01-23T20:52:52.157Z,-1.75
2023-01-23T20:55:20.436Z,-1.88
2023-01-23T20:58:07.177Z,-1.76
2023-01-23T21:00:34.753Z,-1.81
2023-01-23T21:03:02.343Z,-1.81
2023-01-23T21:05:29.906Z,-1.75
2023-01-23T21:07:57.518Z,-1.74
2023-01-23T21:10:25.130Z,-1.76
2023-01-23T21:12:54.127Z,-1.78
2023-01-23T21:15:22.103Z,-1.94
2023-01-23T21:17:50.038Z,-1.72
2023-01-23T21:20:17.780Z,-1.75
2023-01-23T21:22:45.479Z,-1.74
2023-01-23T21:25:13.259Z,-1.87
2023-01-23T21:27:41.102Z,-1.94
2023-01-23T21:30:12.198Z,-1.72
2023-01-23T21:32:40.250Z,-2.01
2023-01-23T21:35:09.770Z,-2.01
2023-01-23T21:37:40.386Z,-2.10
2023-01-23T21:40:10.158Z,-2.08
2023-01-23T21:42:38.016Z,-2.10
2023-01-23T21:45:06.861Z,-1.97
2023-01-23T21:47:36.250Z,-1.67
2023-01-23T21:50:03.936Z,-1.70
2023-01-23T21:52:31.809Z,-1.66
2023-01-23T21:54:59.289Z,-1.70
2023-01-23T21:57:26.898Z,-1.70
2023-01-23T22:00:08.338Z,-1.64
2023-01-23T22:02:37.303Z,-1.65
2023-01-23T22:05:05.110Z,-1.60
2023-01-23T22:07:32.640Z,-1.71
2023-01-23T22:10:00.556Z,-1.73
2023-01-23T22:12:29.038Z,-1.96
2023-01-23T22:14:56.562Z,-1.98
2023-01-23T22:17:24.275Z,-1.64
2023-01-23T22:19:53.159Z,-1.63
2023-01-23T22:22:20.728Z,-1.65
2023-01-23T22:24:48.262Z,-1.60
2023-01-23T22:27:15.827Z,-1.61
2023-01-23T22:29:43.425Z,-1.88
2023-01-23T22:32:11.269Z,-1.84
2023-01-23T22:34:38.803Z,-1.63
2023-01-23T22:37:07.829Z,-1.88
2023-01-23T22:39:35.489Z,-1.62
2023-01-23T22:42:03.800Z,-1.83
2023-01-23T22:44:31.573Z,-1.90
2023-01-23T22:46:59.084Z,-1.64
2023-01-23T22:49:27.029Z,-1.85
2023-01-23T22:51:54.882Z,-1.76
2023-01-23T22:54:23.755Z,-1.63
2023-01-23T22:56:51.215Z,-1.60
2023-01-23T22:59:18.718Z,-1.65
2023-01-23T23:01:46.248Z,-1.66
2023-01-23T23:04:13.719Z,-1.76
2023-01-23T23:06:41.203Z,-1.80
2023-01-23T23:09:10.497Z,-1.67
2023-01-23T23:11:41.174Z,-1.69
2023-01-23T23:14:11.032Z,-1.69
2023-01-23T23:16:41.002Z,-1.69
2023-01-23T23:19:08.835Z,-1.66
2023-01-23T23:21:37.778Z,-1.83
2023-01-23T23:24:07.400Z,-1.72
2023-01-23T23:26:35.401Z,-1.83
2023-01-23T23:29:05.004Z,-1.76
2023-01-23T23:31:32.991Z,-1.86
2023-01-23T23:34:00.724Z,-1.75
2023-01-23T23:36:28.295Z,-1.70
2023-01-23T23:38:55.812Z,-1.74
2023-01-23T23:41:23.509Z,-1.74
2023-01-23T23:43:51.029Z,-1.93
2023-01-23T23:46:19.897Z,-1.73
2023-01-23T23:48:48.004Z,-1.70
2023-01-23T23:51:18.530Z,-1.71
2023-01-23T23:53:47.147Z,-1.71
2023-01-23T23:56:20.539Z,-1.72
2023-01-23T23:58:48.001Z,-1.72
